CheckWX is a tool to help pilots better visualize weather data.  It is not intended as a substitute for an official pre-flight weather briefing.

10:41:20 UTC

KSEQ METAR
Randolph AFB Aux Airport
Seguin, Texas, USA
Current

43 mins ago

KSEQ 170958Z AUTO 35005KT 10SM BKN016 22/20 A2997 RMK AO2 BKN V SCT SLP143 T02200203
Observed
Sep-17 @ 09:58 UTC
Wind
  • 350° at 5 KTS
Visibility
10 SM
Flight Rules
MVFR
Cloud Levels
  • Broken at 1,600' AGL
Temperature
22°C / 72°F
Dewpoint
20°C / 68°F
Humidity
88%
Altimeter
29.97" Hg
Pressure
1014.92 hPa
Previous

2 hours ago

KSEQ 170858Z AUTO 36004KT 10SM CLR 22/20 A2997 RMK AO2 SLP143 T02230204 55001
Observed
Sep-17 @ 08:58 UTC
Wind
  • 360° at 4 KTS
Visibility
10 SM
Flight Rules
VFR
Cloud Levels
  • Clear skies
Temperature
22°C / 72°F
Dewpoint
20°C / 68°F
Humidity
88%
Altimeter
29.97" Hg
Pressure
1014.92 hPa
Previous

3 hours ago

KSEQ 170758Z AUTO 01003KT 10SM CLR 23/21 A2998 RMK AO2 SLP147 T02280207
Observed
Sep-17 @ 07:58 UTC
Wind
  • 010° at 3 KTS
Visibility
10 SM
Flight Rules
VFR
Cloud Levels
  • Clear skies
Temperature
23°C / 73°F
Dewpoint
21°C / 70°F
Humidity
89%
Altimeter
29.98" Hg
Pressure
1015.22 hPa